createdAt,value
2023-01-08T00:02:24.728Z,16.92
2023-01-08T00:04:51.055Z,16.88
2023-01-08T00:07:17.394Z,16.88
2023-01-08T00:09:43.708Z,16.85
2023-01-08T00:12:09.994Z,16.83
2023-01-08T00:14:36.267Z,16.81
2023-01-08T00:17:02.562Z,16.79
2023-01-08T00:19:28.854Z,16.77
2023-01-08T00:21:55.203Z,16.76
2023-01-08T00:24:21.560Z,16.74
2023-01-08T00:26:47.984Z,16.71
2023-01-08T00:29:14.285Z,16.70
2023-01-08T00:31:40.734Z,16.67
2023-01-08T00:34:07.155Z,16.64
2023-01-08T00:36:33.581Z,16.62
2023-01-08T00:39:00.324Z,16.58
2023-01-08T00:41:26.843Z,16.56
2023-01-08T00:43:53.125Z,16.55
2023-01-08T00:46:19.489Z,16.53
2023-01-08T00:48:45.836Z,16.50
2023-01-08T00:51:12.085Z,16.47
2023-01-08T00:53:38.489Z,16.47
2023-01-08T00:56:04.771Z,16.46
2023-01-08T00:58:31.035Z,16.44
2023-01-08T01:00:57.350Z,16.43
2023-01-08T01:03:23.647Z,16.41
2023-01-08T01:05:49.913Z,16.40
2023-01-08T01:08:16.203Z,16.38
2023-01-08T01:10:44.612Z,16.41
2023-01-08T01:13:10.886Z,16.42
2023-01-08T01:15:37.205Z,16.40
2023-01-08T01:18:03.604Z,16.39
2023-01-08T01:20:29.927Z,16.36
2023-01-08T01:22:56.396Z,16.35
2023-01-08T01:25:22.691Z,16.34
2023-01-08T01:27:49.036Z,16.32
2023-01-08T01:30:21.222Z,16.29
2023-01-08T01:32:47.536Z,16.27
2023-01-08T01:35:13.890Z,16.28
2023-01-08T01:37:40.364Z,16.27
2023-01-08T01:40:06.698Z,16.26
2023-01-08T01:42:33.010Z,16.24
2023-01-08T01:44:59.349Z,16.22
2023-01-08T01:47:25.597Z,16.21
2023-01-08T01:49:51.916Z,16.19
2023-01-08T01:52:18.193Z,16.17
2023-01-08T01:54:44.506Z,16.16
2023-01-08T01:57:10.801Z,16.13
2023-01-08T01:59:37.072Z,16.11
2023-01-08T02:02:03.403Z,16.08
2023-01-08T02:04:29.695Z,16.07
2023-01-08T02:06:55.995Z,16.05
2023-01-08T02:09:22.279Z,16.04
2023-01-08T02:11:48.587Z,16.03
2023-01-08T02:14:14.874Z,16.00
2023-01-08T02:16:41.225Z,15.99
2023-01-08T02:19:07.644Z,15.97
2023-01-08T02:21:33.942Z,15.95
2023-01-08T02:24:00.213Z,15.94
2023-01-08T02:26:26.493Z,15.93
2023-01-08T02:28:52.801Z,15.92
2023-01-08T02:31:19.186Z,15.90
2023-01-08T02:33:45.666Z,15.90
2023-01-08T02:36:11.950Z,15.88
2023-01-08T02:38:38.274Z,15.87
2023-01-08T02:41:04.573Z,15.85
2023-01-08T02:43:30.862Z,15.84
2023-01-08T02:45:57.160Z,15.83
2023-01-08T02:48:23.902Z,15.81
2023-01-08T02:50:50.310Z,15.81
2023-01-08T02:53:16.575Z,15.79
2023-01-08T02:55:42.841Z,15.77
2023-01-08T02:58:09.189Z,15.75
2023-01-08T03:00:35.518Z,15.76
2023-01-08T03:03:01.784Z,15.73
2023-01-08T03:05:28.117Z,15.73
2023-01-08T03:07:54.515Z,15.72
2023-01-08T03:10:20.873Z,15.70
2023-01-08T03:12:47.176Z,15.71
2023-01-08T03:15:13.483Z,15.69
2023-01-08T03:17:39.776Z,15.68
2023-01-08T03:20:06.088Z,15.67
2023-01-08T03:22:32.377Z,15.63
2023-01-08T03:24:58.837Z,15.61
2023-01-08T03:27:25.120Z,15.60
2023-01-08T03:29:51.446Z,15.59
2023-01-08T03:32:17.777Z,15.57
2023-01-08T03:34:44.064Z,15.56
2023-01-08T03:37:10.354Z,15.54
2023-01-08T03:39:36.724Z,15.53
2023-01-08T03:42:03.069Z,15.51
2023-01-08T03:44:29.388Z,15.50
2023-01-08T03:46:55.729Z,15.48
2023-01-08T03:49:22.028Z,15.47
2023-01-08T03:51:48.304Z,15.46
2023-01-08T03:54:14.568Z,15.44
2023-01-08T03:56:40.869Z,15.45
2023-01-08T03:59:07.162Z,15.45
2023-01-08T04:01:33.566Z,15.43
2023-01-08T04:03:59.978Z,15.43
2023-01-08T04:06:26.358Z,15.41
2023-01-08T04:08:52.632Z,15.41
2023-01-08T04:11:18.905Z,15.41
2023-01-08T04:13:45.255Z,15.40
2023-01-08T04:16:11.687Z,15.40
2023-01-08T04:18:38.005Z,15.38
2023-01-08T04:21:04.337Z,15.37
2023-01-08T04:23:30.610Z,15.36
2023-01-08T04:25:57.175Z,15.35
2023-01-08T04:28:23.480Z,15.34
2023-01-08T04:30:49.770Z,15.32
2023-01-08T04:33:16.094Z,15.31
2023-01-08T04:35:42.451Z,15.30
2023-01-08T04:38:10.333Z,15.30
2023-01-08T04:40:37.844Z,15.30
2023-01-08T04:43:04.144Z,15.29
2023-01-08T04:45:30.405Z,15.28
2023-01-08T04:47:56.705Z,15.27
2023-01-08T04:50:22.955Z,15.26
2023-01-08T04:52:49.360Z,15.25
2023-01-08T04:55:18.869Z,15.25
2023-01-08T04:57:45.582Z,15.22
2023-01-08T05:00:11.891Z,15.22
2023-01-08T05:02:38.329Z,15.20
2023-01-08T05:05:04.750Z,15.20
2023-01-08T05:07:31.032Z,15.20
2023-01-08T05:09:57.406Z,15.18
2023-01-08T05:12:23.829Z,15.19
2023-01-08T05:14:50.108Z,15.17
2023-01-08T05:17:16.356Z,15.17
2023-01-08T05:19:42.653Z,15.17
2023-01-08T05:22:08.997Z,15.16
2023-01-08T05:24:35.320Z,15.14
2023-01-08T05:27:01.673Z,15.14
2023-01-08T05:29:28.068Z,15.13
2023-01-08T05:31:54.331Z,15.11
2023-01-08T05:34:20.608Z,15.10
2023-01-08T05:36:46.921Z,15.08
2023-01-08T05:39:13.260Z,15.08
2023-01-08T05:41:39.731Z,15.08
2023-01-08T05:44:06.249Z,15.05
2023-01-08T05:46:32.595Z,15.06
2023-01-08T05:48:59.019Z,15.05
2023-01-08T05:51:25.330Z,15.04
2023-01-08T05:53:51.646Z,15.03
2023-01-08T05:56:17.937Z,15.01
2023-01-08T05:58:44.207Z,15.00
2023-01-08T06:01:10.546Z,15.00
2023-01-08T06:03:39.951Z,14.99
2023-01-08T06:06:06.448Z,14.99
2023-01-08T06:08:32.744Z,14.98
2023-01-08T06:10:59.040Z,14.97
2023-01-08T06:13:25.337Z,14.97
2023-01-08T06:15:51.681Z,14.96
2023-01-08T06:18:18.048Z,14.96
2023-01-08T06:20:45.397Z,14.95
2023-01-08T06:23:11.718Z,14.95
2023-01-08T06:25:39.397Z,14.95
2023-01-08T06:28:05.669Z,14.94
2023-01-08T06:30:32.144Z,14.95
2023-01-08T06:32:58.421Z,14.95
2023-01-08T06:35:24.729Z,14.95
2023-01-08T06:37:51.001Z,14.94
2023-01-08T06:40:17.291Z,14.94
2023-01-08T06:42:43.642Z,14.93
2023-01-08T06:45:10.062Z,14.91
2023-01-08T06:47:38.495Z,14.91
2023-01-08T06:50:04.783Z,14.90
2023-01-08T06:52:31.042Z,14.89
2023-01-08T06:54:57.378Z,14.88
2023-01-08T06:57:23.665Z,14.89
2023-01-08T06:59:49.948Z,14.88
2023-01-08T07:02:16.373Z,14.87
2023-01-08T07:04:42.740Z,14.86
2023-01-08T07:07:09.023Z,14.86
2023-01-08T07:09:35.351Z,14.86
2023-01-08T07:12:01.603Z,14.85
2023-01-08T07:14:28.003Z,14.84
2023-01-08T07:16:54.255Z,14.84
2023-01-08T07:19:20.572Z,14.83
2023-01-08T07:21:46.859Z,14.82
2023-01-08T07:24:13.107Z,14.81
2023-01-08T07:26:39.364Z,14.81
2023-01-08T07:29:05.666Z,14.79
2023-01-08T07:31:32.204Z,14.79
2023-01-08T07:33:58.496Z,14.78
2023-01-08T07:36:24.785Z,14.77
2023-01-08T07:38:51.063Z,14.77
2023-01-08T07:41:17.307Z,14.76
2023-01-08T07:43:43.592Z,14.75
2023-01-08T07:46:09.996Z,14.75
2023-01-08T07:48:36.326Z,14.75
2023-01-08T07:51:02.573Z,14.74
2023-01-08T07:53:28.887Z,14.73
2023-01-08T07:55:55.176Z,14.73
2023-01-08T07:58:21.428Z,14.72
2023-01-08T08:00:47.725Z,14.72
2023-01-08T08:03:14.129Z,14.70
2023-01-08T08:05:40.415Z,14.70
2023-01-08T08:08:06.674Z,14.69
2023-01-08T08:10:32.942Z,14.70
2023-01-08T08:12:59.223Z,14.68
2023-01-08T08:15:25.504Z,14.68
2023-01-08T08:17:51.879Z,14.67
2023-01-08T08:20:18.158Z,14.66
2023-01-08T08:22:44.420Z,14.65
2023-01-08T08:25:10.716Z,14.64
2023-01-08T08:27:37.066Z,14.65
2023-01-08T08:30:03.321Z,14.64
2023-01-08T08:32:29.663Z,14.64
2023-01-08T08:34:55.936Z,14.64
2023-01-08T08:37:22.189Z,14.65
2023-01-08T08:39:48.461Z,14.64
2023-01-08T08:42:14.753Z,14.63
2023-01-08T08:44:42.847Z,14.64
2023-01-08T08:47:09.381Z,14.64
2023-01-08T08:49:35.636Z,14.64
2023-01-08T08:52:01.954Z,14.65
2023-01-08T08:54:28.233Z,14.68
2023-01-08T08:56:54.537Z,14.70
2023-01-08T08:59:20.867Z,14.70
2023-01-08T09:01:50.252Z,14.71
2023-01-08T09:04:16.608Z,14.70
2023-01-08T09:06:42.885Z,14.70
2023-01-08T09:09:12.320Z,14.79
2023-01-08T09:11:38.692Z,14.98
2023-01-08T09:14:05.201Z,15.19
2023-01-08T09:16:31.539Z,15.37
2023-01-08T09:18:57.840Z,15.50
2023-01-08T09:21:24.250Z,15.67
2023-01-08T09:23:50.507Z,15.78
2023-01-08T09:26:16.786Z,15.87
2023-01-08T09:28:43.091Z,15.96
2023-01-08T09:31:09.393Z,16.04
2023-01-08T09:33:35.693Z,16.11
2023-01-08T09:36:02.032Z,16.20
2023-01-08T09:38:29.835Z,16.30
2023-01-08T09:40:56.405Z,16.44
2023-01-08T09:43:22.677Z,16.67
2023-01-08T09:45:48.924Z,16.88
2023-01-08T09:48:15.224Z,17.08
2023-01-08T09:50:41.470Z,17.30
2023-01-08T09:53:07.778Z,17.56
2023-01-08T09:55:34.034Z,17.77
2023-01-08T09:58:02.929Z,17.99
2023-01-08T10:00:29.561Z,18.19
2023-01-08T10:02:55.875Z,18.42
2023-01-08T10:05:22.204Z,18.58
2023-01-08T10:07:48.466Z,18.73
2023-01-08T10:10:14.804Z,18.91
2023-01-08T10:12:41.105Z,19.09
2023-01-08T10:15:07.463Z,19.25
2023-01-08T10:17:33.736Z,19.38
2023-01-08T10:20:00.014Z,19.54
2023-01-08T10:22:26.341Z,19.66
2023-01-08T10:24:52.612Z,19.81
2023-01-08T10:27:18.967Z,19.92
2023-01-08T10:29:45.268Z,20.04
2023-01-08T10:32:11.601Z,20.15
2023-01-08T10:34:37.947Z,20.28
2023-01-08T10:37:04.207Z,20.37
2023-01-08T10:39:30.465Z,20.46
2023-01-08T10:41:59.560Z,20.56
2023-01-08T10:44:25.864Z,20.65
2023-01-08T10:46:52.362Z,20.75
2023-01-08T10:49:18.739Z,20.84
2023-01-08T10:51:45.043Z,20.93
2023-01-08T10:54:11.379Z,21.00
2023-01-08T10:56:37.729Z,21.02
2023-01-08T10:59:04.082Z,21.06
2023-01-08T11:01:30.512Z,21.13
2023-01-08T11:03:56.841Z,21.21
2023-01-08T11:06:23.098Z,21.23
2023-01-08T11:08:51.499Z,21.24
2023-01-08T11:11:19.098Z,21.23
2023-01-08T11:13:45.402Z,21.23
2023-01-08T11:16:11.689Z,21.23
2023-01-08T11:18:38.002Z,21.19
2023-01-08T11:21:04.271Z,21.12
2023-01-08T11:23:30.529Z,21.07
2023-01-08T11:25:56.777Z,21.02
2023-01-08T11:28:23.079Z,21.17
2023-01-08T11:30:49.462Z,21.20
2023-01-08T11:33:15.745Z,21.20
2023-01-08T11:35:42.050Z,21.18
2023-01-08T11:38:08.330Z,21.13
2023-01-08T11:40:34.586Z,21.08
2023-01-08T11:43:00.949Z,21.03
2023-01-08T11:45:27.272Z,20.98
2023-01-08T11:47:56.684Z,20.92
2023-01-08T11:50:23.063Z,20.86
2023-01-08T11:52:49.379Z,20.81
2023-01-08T11:55:15.677Z,20.76
2023-01-08T11:57:41.959Z,20.75
2023-01-08T12:00:08.193Z,20.71
2023-01-08T12:02:34.582Z,20.66
2023-01-08T12:05:00.881Z,20.61
2023-01-08T12:07:27.199Z,20.57
2023-01-08T12:09:53.502Z,20.52
2023-01-08T12:12:19.759Z,20.50
2023-01-08T12:14:46.039Z,20.47
2023-01-08T12:17:12.313Z,20.46
2023-01-08T12:19:38.628Z,20.44
2023-01-08T12:22:05.362Z,20.44
2023-01-08T12:24:31.623Z,20.40
2023-01-08T12:26:57.886Z,20.38
2023-01-08T12:29:24.302Z,20.36
2023-01-08T12:32:01.860Z,20.32
2023-01-08T12:34:28.833Z,20.32
2023-01-08T12:36:55.297Z,20.30
2023-01-08T12:39:21.515Z,20.27
2023-01-08T12:41:47.786Z,20.26
2023-01-08T12:44:14.062Z,20.24
2023-01-08T12:46:40.543Z,20.22
2023-01-08T12:49:06.838Z,20.20
2023-01-08T12:51:33.073Z,20.15
2023-01-08T12:53:59.332Z,20.14
2023-01-08T12:56:25.600Z,20.12
2023-01-08T12:58:51.922Z,20.09
2023-01-08T13:01:18.400Z,20.07
2023-01-08T13:03:44.747Z,20.05
2023-01-08T13:06:11.034Z,20.06
2023-01-08T13:08:37.309Z,20.04
2023-01-08T13:11:03.563Z,20.04
2023-01-08T13:13:29.844Z,20.02
2023-01-08T13:15:59.462Z,20.02
2023-01-08T13:18:25.734Z,19.99
2023-01-08T13:20:52.021Z,19.99
2023-01-08T13:23:18.320Z,19.98
2023-01-08T13:25:44.666Z,19.96
2023-01-08T13:28:10.955Z,19.95
2023-01-08T13:30:37.308Z,19.93
2023-01-08T13:33:03.577Z,19.92
2023-01-08T13:35:29.876Z,19.93
2023-01-08T13:37:56.138Z,19.94
2023-01-08T13:40:22.394Z,19.93
2023-01-08T13:42:48.725Z,19.89
2023-01-08T13:45:14.973Z,19.84
2023-01-08T13:47:41.255Z,19.81
2023-01-08T13:50:07.528Z,19.81
2023-01-08T13:52:33.780Z,19.78
2023-01-08T13:55:00.025Z,19.75
2023-01-08T13:57:26.414Z,19.76
2023-01-08T13:59:52.685Z,19.74
2023-01-08T14:02:19.081Z,19.71
2023-01-08T14:04:45.396Z,19.69
2023-01-08T14:07:11.676Z,19.66
2023-01-08T14:09:37.951Z,19.64
2023-01-08T14:12:04.267Z,19.64
2023-01-08T14:14:30.615Z,19.63
2023-01-08T14:16:56.894Z,19.60
2023-01-08T14:19:23.181Z,19.57
2023-01-08T14:21:49.438Z,19.55
2023-01-08T14:24:16.669Z,19.52
2023-01-08T14:26:42.959Z,19.49
2023-01-08T14:29:09.240Z,19.46
2023-01-08T14:31:35.574Z,19.44
2023-01-08T14:34:01.946Z,19.42
2023-01-08T14:36:28.252Z,19.40
2023-01-08T14:38:54.537Z,19.38
2023-01-08T14:41:20.764Z,19.38
2023-01-08T14:43:47.121Z,19.35
2023-01-08T14:46:13.415Z,19.33
2023-01-08T14:48:39.693Z,19.30
2023-01-08T14:51:06.003Z,19.28
2023-01-08T14:53:32.322Z,19.26
2023-01-08T14:55:58.557Z,19.25
2023-01-08T14:58:27.988Z,19.23
2023-01-08T15:00:54.499Z,19.22
2023-01-08T15:03:20.799Z,19.20
2023-01-08T15:05:47.154Z,19.19
2023-01-08T15:08:13.446Z,19.16
2023-01-08T15:10:39.797Z,19.15
2023-01-08T15:13:09.091Z,19.13
2023-01-08T15:15:35.415Z,19.12
2023-01-08T15:18:01.699Z,19.10
2023-01-08T15:20:27.999Z,19.08
2023-01-08T15:22:54.251Z,19.06
2023-01-08T15:25:20.539Z,19.05
2023-01-08T15:27:46.864Z,19.03
2023-01-08T15:30:13.144Z,19.01
2023-01-08T15:32:39.686Z,19.00
2023-01-08T15:35:06.011Z,18.99
2023-01-08T15:37:32.256Z,18.96
2023-01-08T15:39:58.522Z,18.95
2023-01-08T15:42:24.774Z,18.93
2023-01-08T15:44:51.038Z,18.93
2023-01-08T15:47:20.455Z,18.90
2023-01-08T15:49:46.725Z,18.90
2023-01-08T15:52:13.118Z,18.90
2023-01-08T15:54:42.493Z,18.89
2023-01-08T15:57:08.873Z,18.88
2023-01-08T15:59:35.691Z,18.87
2023-01-08T16:02:02.032Z,18.86
2023-01-08T16:04:28.358Z,18.86
2023-01-08T16:06:54.763Z,18.85
2023-01-08T16:09:21.070Z,18.84
2023-01-08T16:11:47.517Z,18.84
2023-01-08T16:14:13.867Z,18.84
2023-01-08T16:16:40.196Z,18.85
2023-01-08T16:19:06.510Z,18.87
2023-01-08T16:21:32.867Z,18.87
2023-01-08T16:24:01.419Z,18.89
2023-01-08T16:26:27.675Z,18.90
2023-01-08T16:28:54.458Z,18.91
2023-01-08T16:31:20.798Z,18.93
2023-01-08T16:33:47.124Z,18.94
2023-01-08T16:36:13.699Z,18.95
2023-01-08T16:38:40.000Z,18.97
2023-01-08T16:41:06.252Z,19.00
2023-01-08T16:43:32.539Z,19.01
2023-01-08T16:45:58.846Z,19.04
2023-01-08T16:48:25.195Z,19.04
2023-01-08T16:50:51.488Z,19.06
2023-01-08T16:53:17.810Z,19.09
2023-01-08T16:55:44.105Z,19.10
2023-01-08T16:58:10.389Z,19.13
2023-01-08T17:00:36.727Z,19.13
2023-01-08T17:03:03.030Z,19.14
2023-01-08T17:05:29.319Z,19.16
2023-01-08T17:07:55.581Z,19.17
2023-01-08T17:10:24.959Z,19.17
2023-01-08T17:12:51.226Z,19.19
2023-01-08T17:15:17.528Z,19.19
2023-01-08T17:17:43.893Z,19.18
2023-01-08T17:20:10.204Z,19.18
2023-01-08T17:22:36.466Z,19.16
2023-01-08T17:25:02.761Z,19.16
2023-01-08T17:27:31.869Z,19.16
2023-01-08T17:29:58.118Z,19.14
2023-01-08T17:32:24.513Z,19.14
2023-01-08T17:34:50.827Z,19.12
2023-01-08T17:37:17.125Z,19.10
2023-01-08T17:39:43.360Z,19.08
2023-01-08T17:42:09.615Z,19.07
2023-01-08T17:44:35.945Z,19.06
2023-01-08T17:47:02.249Z,19.05
2023-01-08T17:49:28.531Z,19.04
2023-01-08T17:51:54.862Z,19.03
2023-01-08T17:54:21.118Z,19.00
2023-01-08T17:56:47.446Z,19.00
2023-01-08T17:59:13.752Z,18.99
2023-01-08T18:01:40.150Z,18.96
2023-01-08T18:04:06.498Z,18.94
2023-01-08T18:06:32.796Z,18.93
2023-01-08T18:08:59.308Z,18.91
2023-01-08T18:11:28.405Z,18.89
2023-01-08T18:13:54.679Z,18.88
2023-01-08T18:16:20.988Z,18.88
2023-01-08T18:18:47.242Z,18.86
2023-01-08T18:21:13.552Z,18.85
2023-01-08T18:23:39.894Z,18.86
2023-01-08T18:26:06.224Z,18.86
2023-01-08T18:28:32.529Z,18.87
2023-01-08T18:30:58.903Z,18.87
2023-01-08T18:33:25.216Z,18.87
2023-01-08T18:35:51.466Z,18.88
2023-01-08T18:38:17.822Z,18.86
2023-01-08T18:40:44.179Z,18.87
2023-01-08T18:43:10.449Z,18.86
2023-01-08T18:45:36.781Z,18.85
2023-01-08T18:48:03.090Z,18.84
2023-01-08T18:50:29.341Z,18.84
2023-01-08T18:52:55.689Z,18.83
2023-01-08T18:55:21.995Z,18.82
2023-01-08T18:57:48.314Z,18.82
2023-01-08T19:00:14.564Z,18.80
2023-01-08T19:02:40.973Z,18.80
2023-01-08T19:05:07.355Z,18.80
2023-01-08T19:07:33.634Z,18.80
2023-01-08T19:09:59.896Z,18.80
2023-01-08T19:12:26.153Z,18.80
2023-01-08T19:14:52.433Z,18.80
2023-01-08T19:17:18.703Z,18.81
2023-01-08T19:19:45.010Z,18.81
2023-01-08T19:22:14.149Z,18.81
2023-01-08T19:24:40.440Z,18.80
2023-01-08T19:27:06.814Z,18.81
2023-01-08T19:29:33.146Z,18.84
2023-01-08T19:31:59.475Z,18.85
2023-01-08T19:34:25.842Z,18.86
2023-01-08T19:36:52.113Z,18.87
2023-01-08T19:39:18.417Z,18.88
2023-01-08T19:41:47.481Z,18.88
2023-01-08T19:44:13.822Z,18.88
2023-01-08T19:46:40.113Z,18.88
2023-01-08T19:49:06.440Z,18.87
2023-01-08T19:51:32.740Z,18.87
2023-01-08T19:53:59.038Z,18.86
2023-01-08T19:56:25.318Z,18.86
2023-01-08T19:58:51.582Z,18.79
2023-01-08T20:01:18.003Z,18.83
2023-01-08T20:03:44.460Z,18.81
2023-01-08T20:06:10.721Z,18.80
2023-01-08T20:08:37.037Z,18.79
2023-01-08T20:11:03.502Z,18.78
2023-01-08T20:13:29.789Z,18.76
2023-01-08T20:15:56.150Z,18.75
2023-01-08T20:18:22.434Z,18.74
2023-01-08T20:20:48.700Z,18.73
2023-01-08T20:23:14.962Z,18.71
2023-01-08T20:25:41.382Z,18.70
2023-01-08T20:28:07.642Z,18.68
2023-01-08T20:30:33.931Z,18.65
2023-01-08T20:33:00.296Z,18.65
2023-01-08T20:35:26.564Z,18.64
2023-01-08T20:37:52.827Z,18.62
2023-01-08T20:40:19.135Z,18.61
2023-01-08T20:42:45.413Z,18.60
2023-01-08T20:45:11.733Z,18.58
2023-01-08T20:47:38.007Z,18.57
2023-01-08T20:50:12.336Z,18.56
2023-01-08T20:52:45.414Z,18.56
2023-01-08T20:55:11.709Z,18.56
2023-01-08T20:57:38.101Z,18.56
2023-01-08T21:00:04.380Z,18.56
2023-01-08T21:02:30.683Z,18.54
2023-01-08T21:04:57.002Z,18.56
2023-01-08T21:07:23.355Z,18.54
2023-01-08T21:09:49.879Z,18.54
2023-01-08T21:12:16.205Z,18.52
2023-01-08T21:14:42.515Z,18.52
2023-01-08T21:17:08.762Z,18.52
2023-01-08T21:19:35.076Z,18.51
2023-01-08T21:22:01.414Z,18.50
2023-01-08T21:24:27.701Z,18.49
2023-01-08T21:26:54.024Z,18.49
2023-01-08T21:29:20.318Z,18.48
2023-01-08T21:31:46.623Z,18.49
2023-01-08T21:34:13.039Z,18.48
2023-01-08T21:36:39.417Z,18.50
2023-01-08T21:39:06.061Z,18.49
2023-01-08T21:41:32.487Z,18.47
2023-01-08T21:43:58.785Z,18.46
2023-01-08T21:46:25.050Z,18.46
2023-01-08T21:48:51.372Z,18.47
2023-01-08T21:51:17.712Z,18.45
2023-01-08T21:53:44.032Z,18.44
2023-01-08T21:56:10.319Z,18.45
2023-01-08T21:58:36.573Z,18.44
2023-01-08T22:01:04.057Z,18.43
2023-01-08T22:03:30.376Z,18.43
2023-01-08T22:05:56.633Z,18.43
2023-01-08T22:08:22.878Z,18.43
2023-01-08T22:10:49.271Z,18.43
2023-01-08T22:13:15.580Z,18.43
2023-01-08T22:15:41.838Z,18.42
2023-01-08T22:18:08.143Z,18.43
2023-01-08T22:20:34.421Z,18.43
2023-01-08T22:23:00.779Z,18.43
2023-01-08T22:25:27.154Z,18.43
2023-01-08T22:27:53.441Z,18.43
2023-01-08T22:30:19.733Z,18.43
2023-01-08T22:32:45.986Z,18.42
2023-01-08T22:35:12.250Z,18.41
2023-01-08T22:37:38.506Z,18.41
2023-01-08T22:40:04.789Z,18.40
2023-01-08T22:42:31.113Z,18.40
2023-01-08T22:44:57.492Z,18.38
2023-01-08T22:47:23.754Z,18.37
2023-01-08T22:49:50.003Z,18.36
2023-01-08T22:52:16.318Z,18.35
2023-01-08T22:54:42.964Z,18.34
2023-01-08T22:57:09.211Z,18.33
2023-01-08T22:59:35.526Z,18.33
2023-01-08T23:02:01.812Z,18.31
2023-01-08T23:04:28.109Z,18.30
2023-01-08T23:06:54.382Z,18.28
2023-01-08T23:09:20.715Z,18.28
2023-01-08T23:11:46.988Z,18.27
2023-01-08T23:14:15.553Z,18.25
2023-01-08T23:16:41.859Z,18.18
2023-01-08T23:19:08.187Z,18.09
2023-01-08T23:21:34.494Z,18.00
2023-01-08T23:24:00.754Z,17.88
2023-01-08T23:26:27.068Z,17.80
2023-01-08T23:28:53.320Z,17.72
2023-01-08T23:31:19.653Z,17.64
2023-01-08T23:33:46.016Z,17.57
2023-01-08T23:36:14.337Z,17.51
2023-01-08T23:38:41.246Z,17.45
2023-01-08T23:41:07.747Z,17.39
2023-01-08T23:43:34.002Z,17.33
2023-01-08T23:46:00.747Z,17.28
2023-01-08T23:48:27.267Z,17.23
2023-01-08T23:50:53.527Z,17.18
2023-01-08T23:53:19.879Z,17.14
2023-01-08T23:55:46.205Z,17.10
2023-01-08T23:58:12.476Z,17.06
